createdAt,value
2016-08-04T00:00:34.907Z,0
2016-08-04T00:01:34.780Z,0
2016-08-04T00:02:34.924Z,0
2016-08-04T00:03:34.877Z,0
2016-08-04T00:05:34.745Z,0
2016-08-04T00:06:35.094Z,0
2016-08-04T00:07:34.775Z,0
2016-08-04T00:08:34.889Z,0
2016-08-04T00:09:34.734Z,0
2016-08-04T00:10:34.735Z,0
2016-08-04T00:11:34.741Z,0
2016-08-04T00:12:34.879Z,0
2016-08-04T00:13:34.762Z,0
2016-08-04T00:14:34.895Z,0
2016-08-04T00:15:34.901Z,0
2016-08-04T00:16:34.720Z,0
2016-08-04T00:17:34.881Z,0
2016-08-04T00:18:34.723Z,0
2016-08-04T00:19:34.883Z,0
2016-08-04T00:20:34.702Z,0
2016-08-04T00:21:34.870Z,0
2016-08-04T00:22:34.910Z,0
2016-08-04T00:23:34.715Z,0
2016-08-04T00:24:34.701Z,0
2016-08-04T00:25:34.724Z,0
2016-08-04T00:26:34.871Z,0
2016-08-04T00:27:34.704Z,0
2016-08-04T00:28:34.664Z,0
2016-08-04T00:29:34.720Z,0
2016-08-04T00:30:34.683Z,0
2016-08-04T00:31:35.503Z,0
2016-08-04T00:32:35.419Z,0
2016-08-04T00:33:34.684Z,0
2016-08-04T00:35:34.647Z,0
2016-08-04T00:36:34.673Z,0
2016-08-04T00:37:34.728Z,0
2016-08-04T00:38:34.652Z,0
2016-08-04T00:39:34.676Z,0
2016-08-04T00:40:34.727Z,0
2016-08-04T00:41:34.857Z,0
2016-08-04T00:42:34.670Z,0
2016-08-04T00:43:34.701Z,0
2016-08-04T00:44:34.621Z,0
2016-08-04T00:45:34.600Z,0
2016-08-04T00:46:34.631Z,0
2016-08-04T00:47:34.633Z,0
2016-08-04T00:48:34.607Z,0
2016-08-04T00:50:34.691Z,0
2016-08-04T00:51:34.608Z,0
2016-08-04T00:52:34.601Z,0
2016-08-04T00:53:34.607Z,0
2016-08-04T00:54:34.602Z,0
2016-08-04T00:55:34.594Z,0
2016-08-04T00:56:34.565Z,0
2016-08-04T00:57:34.625Z,0
2016-08-04T00:58:34.580Z,0
2016-08-04T00:59:34.614Z,0
2016-08-04T01:00:34.573Z,0
2016-08-04T01:01:35.300Z,0
2016-08-04T01:02:34.595Z,0
2016-08-04T01:03:34.580Z,0
2016-08-04T01:05:35.163Z,0
2016-08-04T01:06:34.600Z,0
2016-08-04T01:07:34.653Z,0
2016-08-04T01:08:35.352Z,0
2016-08-04T01:09:34.532Z,0
2016-08-04T01:10:34.557Z,0
2016-08-04T01:11:34.553Z,0
2016-08-04T01:12:34.524Z,0
2016-08-04T01:13:34.537Z,0
2016-08-04T01:14:34.509Z,0
2016-08-04T01:15:34.552Z,0
2016-08-04T01:16:34.503Z,0
2016-08-04T01:17:34.531Z,0
2016-08-04T01:18:35.285Z,0
2016-08-04T01:19:34.528Z,0
2016-08-04T01:20:34.502Z,0
2016-08-04T01:21:34.493Z,0
2016-08-04T01:22:34.500Z,0
2016-08-04T01:23:34.556Z,0
2016-08-04T01:24:34.498Z,0
2016-08-04T01:25:34.491Z,0
2016-08-04T01:26:34.473Z,0
2016-08-04T01:27:34.481Z,0
2016-08-04T01:28:34.542Z,0
2016-08-04T01:29:34.470Z,0
2016-08-04T01:30:34.492Z,0
2016-08-04T01:31:35.215Z,0
2016-08-04T01:32:34.494Z,0
2016-08-04T01:33:34.631Z,0
2016-08-04T01:34:34.460Z,0
2016-08-04T01:35:34.452Z,0
2016-08-04T01:36:34.447Z,0
2016-08-04T01:37:34.461Z,0
2016-08-04T01:38:34.457Z,0
2016-08-04T01:39:34.453Z,0
2016-08-04T01:40:34.449Z,0
2016-08-04T01:41:34.504Z,0
2016-08-04T01:42:34.448Z,0
2016-08-04T01:43:34.466Z,0
2016-08-04T01:44:34.435Z,0
2016-08-04T01:45:34.407Z,0
2016-08-04T01:46:34.424Z,0
2016-08-04T01:47:34.414Z,0
2016-08-04T01:48:34.428Z,0
2016-08-04T01:49:34.413Z,0
2016-08-04T01:50:34.466Z,0
2016-08-04T01:51:34.431Z,0
2016-08-04T01:52:34.399Z,0
2016-08-04T01:53:34.431Z,0
2016-08-04T01:54:34.446Z,0
2016-08-04T01:55:34.442Z,0
2016-08-04T01:56:35.189Z,0
2016-08-04T01:57:34.403Z,0
2016-08-04T01:58:34.426Z,0
2016-08-04T01:59:34.423Z,0
2016-08-04T02:00:34.390Z,0
2016-08-04T02:01:34.375Z,0
2016-08-04T02:02:34.364Z,0
2016-08-04T02:03:34.448Z,0
2016-08-04T02:04:34.360Z,0
2016-08-04T02:05:34.442Z,0
2016-08-04T02:06:34.365Z,0
2016-08-04T02:07:34.371Z,0
2016-08-04T02:08:34.355Z,0
2016-08-04T02:09:34.376Z,0
2016-08-04T02:10:34.376Z,0
2016-08-04T02:11:34.368Z,0
2016-08-04T02:12:34.364Z,0
2016-08-04T02:13:34.341Z,0
2016-08-04T02:14:34.351Z,0
2016-08-04T02:15:34.351Z,0
2016-08-04T02:16:34.349Z,0
2016-08-04T02:17:34.354Z,0
2016-08-04T02:18:34.322Z,0
2016-08-04T02:19:34.331Z,0
2016-08-04T02:20:34.335Z,0
2016-08-04T02:21:34.314Z,0
2016-08-04T02:22:34.355Z,0
2016-08-04T02:23:34.328Z,0
2016-08-04T02:24:34.389Z,0
2016-08-04T02:25:34.296Z,0
2016-08-04T02:26:34.353Z,0
2016-08-04T02:27:34.352Z,0
2016-08-04T02:28:34.304Z,0
2016-08-04T02:29:34.318Z,0
2016-08-04T02:30:34.302Z,0
2016-08-04T02:31:34.321Z,0
2016-08-04T02:32:34.353Z,0
2016-08-04T02:33:34.285Z,0
2016-08-04T02:34:34.284Z,0
2016-08-04T02:35:34.272Z,0
2016-08-04T02:36:34.281Z,0
2016-08-04T02:37:34.361Z,0
2016-08-04T02:38:34.310Z,0
2016-08-04T02:39:34.430Z,0
2016-08-04T02:40:34.376Z,0
2016-08-04T02:41:35.147Z,0
2016-08-04T02:42:34.359Z,0
2016-08-04T02:43:34.305Z,0
2016-08-04T02:44:34.268Z,0
2016-08-04T02:45:34.239Z,0
2016-08-04T02:46:34.251Z,0
2016-08-04T02:47:35.723Z,0
2016-08-04T02:48:34.247Z,0
2016-08-04T02:49:34.274Z,0
2016-08-04T02:50:34.250Z,0
2016-08-04T02:51:34.251Z,0
2016-08-04T02:52:34.258Z,0
2016-08-04T02:53:34.240Z,0
2016-08-04T02:54:34.271Z,0
2016-08-04T02:55:35.143Z,0
2016-08-04T02:56:34.303Z,0
2016-08-04T02:57:34.327Z,0
2016-08-04T02:58:34.200Z,0
2016-08-04T02:59:34.244Z,0
2016-08-04T03:00:34.225Z,0
2016-08-04T03:01:34.212Z,0
2016-08-04T03:02:34.220Z,0
2016-08-04T03:03:34.238Z,0
2016-08-04T03:04:34.197Z,0
2016-08-04T03:05:34.284Z,0
2016-08-04T03:06:34.225Z,0
2016-08-04T03:07:34.179Z,0
2016-08-04T03:08:34.203Z,4
2016-08-04T03:09:34.204Z,4
2016-08-04T03:10:34.187Z,4
2016-08-04T03:11:34.185Z,0
2016-08-04T03:12:34.218Z,4
2016-08-04T03:13:34.194Z,4
2016-08-04T03:14:34.175Z,4
2016-08-04T03:15:34.209Z,4
2016-08-04T03:16:34.154Z,8
2016-08-04T03:17:34.152Z,8
2016-08-04T03:18:34.152Z,8
2016-08-04T03:19:34.154Z,8
2016-08-04T03:20:34.197Z,12
2016-08-04T03:21:34.123Z,16
2016-08-04T03:22:34.134Z,16
2016-08-04T03:23:34.186Z,20
2016-08-04T03:24:35.012Z,20
2016-08-04T03:25:34.129Z,20
2016-08-04T03:26:35.068Z,24
2016-08-04T03:27:34.143Z,24
2016-08-04T03:28:34.126Z,28
2016-08-04T03:29:35.150Z,36
2016-08-04T03:30:34.115Z,36
2016-08-04T03:31:34.106Z,40
2016-08-04T03:32:34.118Z,44
2016-08-04T03:33:34.107Z,44
2016-08-04T03:34:34.225Z,48
2016-08-04T03:35:34.193Z,48
2016-08-04T03:36:34.198Z,48
2016-08-04T03:37:34.181Z,48
2016-08-04T03:38:34.103Z,56
2016-08-04T03:39:34.091Z,60
2016-08-04T03:40:34.072Z,64
2016-08-04T03:41:34.139Z,68
2016-08-04T03:42:34.090Z,76
2016-08-04T03:43:34.156Z,88
2016-08-04T03:44:34.953Z,100
2016-08-04T03:45:34.090Z,112
2016-08-04T03:46:34.066Z,128
2016-08-04T03:47:34.063Z,152
2016-08-04T03:48:34.067Z,184
2016-08-04T03:49:34.069Z,200
2016-08-04T03:50:34.286Z,208
2016-08-04T03:51:34.127Z,204
2016-08-04T03:52:34.086Z,200
2016-08-04T03:53:34.046Z,208
2016-08-04T03:54:34.084Z,224
2016-08-04T03:55:34.126Z,232
2016-08-04T03:56:34.044Z,240
2016-08-04T03:57:34.027Z,244
2016-08-04T03:58:34.034Z,248
2016-08-04T03:59:34.078Z,252
2016-08-04T04:00:34.138Z,264
2016-08-04T04:01:34.042Z,284
2016-08-04T04:02:34.036Z,312
2016-08-04T04:03:34.055Z,348
2016-08-04T04:04:34.901Z,384
2016-08-04T04:05:34.018Z,400
2016-08-04T04:06:34.054Z,404
2016-08-04T04:07:34.059Z,400
2016-08-04T04:08:34.047Z,404
2016-08-04T04:09:34.029Z,412
2016-08-04T04:10:33.981Z,408
2016-08-04T04:11:33.993Z,420
2016-08-04T04:12:33.970Z,420
2016-08-04T04:13:34.023Z,424
2016-08-04T04:14:33.967Z,440
2016-08-04T04:15:34.004Z,456
2016-08-04T04:16:33.983Z,468
2016-08-04T04:17:33.980Z,472
2016-08-04T04:18:33.964Z,484
2016-08-04T04:19:33.997Z,500
2016-08-04T04:21:33.963Z,548
2016-08-04T04:22:34.984Z,600
2016-08-04T04:23:34.012Z,664
2016-08-04T04:24:34.041Z,768
2016-08-04T04:25:33.944Z,904
2016-08-04T04:26:34.052Z,1064
2016-08-04T04:27:33.957Z,1224
2016-08-04T04:28:34.053Z,1376
2016-08-04T04:29:33.942Z,1516
2016-08-04T04:30:33.970Z,1616
2016-08-04T04:31:33.936Z,1708
2016-08-04T04:32:33.976Z,1780
2016-08-04T04:33:33.944Z,1852
2016-08-04T04:34:33.982Z,1936
2016-08-04T04:36:33.926Z,2044
2016-08-04T04:37:33.928Z,2084
2016-08-04T04:38:33.926Z,2104
2016-08-04T04:39:33.943Z,2148
2016-08-04T04:40:33.898Z,2152
2016-08-04T04:41:33.909Z,2128
2016-08-04T04:42:33.909Z,2104
2016-08-04T04:43:33.911Z,2116
2016-08-04T04:44:33.951Z,2108
2016-08-04T04:45:33.912Z,2172
2016-08-04T04:46:33.930Z,2312
2016-08-04T04:47:33.969Z,2484
2016-08-04T04:48:33.940Z,2648
2016-08-04T04:49:33.991Z,2760
2016-08-04T04:51:33.904Z,2924
2016-08-04T04:52:33.901Z,3036
2016-08-04T04:53:33.913Z,3204
2016-08-04T04:54:33.914Z,3380
2016-08-04T04:55:33.895Z,3528
2016-08-04T04:56:33.895Z,3580
2016-08-04T04:57:33.864Z,3640
2016-08-04T04:58:33.886Z,3724
2016-08-04T04:59:33.911Z,3884
2016-08-04T05:00:33.870Z,4008
2016-08-04T05:01:33.888Z,4000
2016-08-04T05:02:33.874Z,3800
2016-08-04T05:03:33.887Z,3548
2016-08-04T05:04:33.906Z,3364
2016-08-04T05:05:33.868Z,3232
2016-08-04T05:06:33.886Z,3100
2016-08-04T05:07:33.872Z,2968
2016-08-04T05:08:33.924Z,2900
2016-08-04T05:09:33.898Z,2804
2016-08-04T05:10:33.910Z,2748
2016-08-04T05:11:33.871Z,2776
2016-08-04T05:12:33.946Z,2844
2016-08-04T05:13:33.976Z,3016
2016-08-04T05:14:33.895Z,3204
2016-08-04T05:15:33.837Z,3452
2016-08-04T05:16:33.843Z,3668
2016-08-04T05:17:33.869Z,3820
2016-08-04T05:18:33.835Z,3856
2016-08-04T05:19:33.863Z,3808
2016-08-04T05:20:33.846Z,3696
2016-08-04T05:21:33.919Z,3552
2016-08-04T05:22:33.892Z,3492
2016-08-04T05:23:33.854Z,3632
2016-08-04T05:24:33.844Z,3784
2016-08-04T05:25:33.850Z,3812
2016-08-04T05:26:33.892Z,3744
2016-08-04T05:27:33.832Z,3604
2016-08-04T05:28:34.797Z,3396
2016-08-04T05:29:33.865Z,3284
2016-08-04T05:30:33.887Z,3200
2016-08-04T05:31:33.834Z,3144
2016-08-04T05:32:33.917Z,3124
2016-08-04T05:33:33.846Z,3184
2016-08-04T05:34:33.811Z,3260
2016-08-04T05:35:33.841Z,3300
2016-08-04T05:36:34.622Z,3352
2016-08-04T05:37:33.828Z,3392
2016-08-04T05:38:33.836Z,3444
2016-08-04T05:39:33.810Z,3564
2016-08-04T05:40:33.815Z,3732
2016-08-04T05:41:34.621Z,3996
2016-08-04T05:42:33.809Z,4320
2016-08-04T05:43:33.811Z,4688
2016-08-04T05:44:33.803Z,4988
2016-08-04T05:45:33.814Z,5236
2016-08-04T05:46:33.829Z,5512
2016-08-04T05:47:33.823Z,5836
2016-08-04T05:48:33.860Z,6076
2016-08-04T05:49:33.811Z,6116
2016-08-04T05:50:33.867Z,6032
2016-08-04T05:51:33.794Z,6044
2016-08-04T05:52:33.798Z,6240
2016-08-04T05:53:33.832Z,6476
2016-08-04T05:54:33.779Z,6704
2016-08-04T05:55:33.803Z,6676
2016-08-04T05:56:33.828Z,6604
2016-08-04T05:57:33.909Z,6616
2016-08-04T05:58:33.817Z,6536
2016-08-04T05:59:33.802Z,6404
2016-08-04T06:00:33.801Z,6392
2016-08-04T06:01:33.803Z,6524
2016-08-04T06:02:33.844Z,6732
2016-08-04T06:03:33.832Z,6928
2016-08-04T06:04:33.797Z,7104
2016-08-04T06:05:34.753Z,7384
2016-08-04T06:06:33.810Z,7812
2016-08-04T06:07:33.777Z,8004
2016-08-04T06:08:33.778Z,8056
2016-08-04T06:09:33.781Z,8004
2016-08-04T06:10:33.775Z,8020
2016-08-04T06:11:33.819Z,7956
2016-08-04T06:12:33.851Z,7832
2016-08-04T06:13:33.820Z,7676
2016-08-04T06:14:33.898Z,7724
2016-08-04T06:15:33.911Z,7972
2016-08-04T06:16:33.848Z,8472
2016-08-04T06:17:33.860Z,9092
2016-08-04T06:18:34.996Z,9844
2016-08-04T06:19:34.860Z,10772
2016-08-04T06:20:33.912Z,11508
2016-08-04T06:21:34.100Z,11796
2016-08-04T06:22:34.133Z,11672
2016-08-04T06:23:33.996Z,11232
2016-08-04T06:24:33.880Z,10688
2016-08-04T06:25:34.954Z,10376
2016-08-04T06:26:35.075Z,10212
2016-08-04T06:27:34.188Z,10248
2016-08-04T06:28:34.838Z,10388
2016-08-04T06:29:33.825Z,10644
2016-08-04T06:30:33.880Z,11100
2016-08-04T06:31:33.858Z,11772
2016-08-04T06:32:33.810Z,12212
2016-08-04T06:33:33.780Z,12260
2016-08-04T06:34:33.794Z,11932
2016-08-04T06:35:33.883Z,11432
2016-08-04T06:36:33.781Z,10684
2016-08-04T06:37:33.813Z,10128
2016-08-04T06:38:33.816Z,9764
2016-08-04T06:39:33.910Z,9668
2016-08-04T06:40:33.796Z,9692
2016-08-04T06:41:33.819Z,9824
2016-08-04T06:42:34.963Z,10108
2016-08-04T06:43:33.874Z,10856
2016-08-04T06:44:34.091Z,12036
2016-08-04T06:45:33.821Z,12476
2016-08-04T06:46:33.973Z,12264
2016-08-04T06:47:33.798Z,11668
2016-08-04T06:48:33.791Z,11092
2016-08-04T06:49:33.884Z,10916
2016-08-04T06:50:33.828Z,10184
2016-08-04T06:51:33.850Z,9772
2016-08-04T06:52:33.831Z,9572
2016-08-04T06:53:33.876Z,9200
2016-08-04T06:54:33.889Z,9196
2016-08-04T06:55:34.210Z,9496
2016-08-04T06:56:34.731Z,9480
2016-08-04T06:57:33.818Z,9492
2016-08-04T06:58:34.002Z,9600
2016-08-04T06:59:34.874Z,9628
2016-08-04T07:00:34.364Z,9656
2016-08-04T07:01:33.782Z,9756
2016-08-04T07:02:33.899Z,9980
2016-08-04T07:03:33.792Z,10460
2016-08-04T07:04:33.849Z,10476
2016-08-04T07:05:33.831Z,10552
2016-08-04T07:06:34.133Z,10416
2016-08-04T07:07:33.867Z,10404
2016-08-04T07:08:33.796Z,10776
2016-08-04T07:09:33.829Z,11116
2016-08-04T07:10:33.803Z,11552
2016-08-04T07:11:33.903Z,12972
2016-08-04T07:12:33.834Z,13192
2016-08-04T07:13:33.824Z,13324
2016-08-04T07:14:33.797Z,13256
2016-08-04T07:15:33.803Z,13588
2016-08-04T07:16:33.842Z,13948
2016-08-04T07:17:33.789Z,14020
2016-08-04T07:18:33.799Z,14652
2016-08-04T07:19:33.826Z,13132
2016-08-04T07:20:33.788Z,12412
2016-08-04T07:21:34.814Z,11784
2016-08-04T07:22:33.802Z,11172
2016-08-04T07:23:33.814Z,11144
2016-08-04T07:24:33.831Z,11736
2016-08-04T07:25:33.896Z,12424
2016-08-04T07:26:33.848Z,13380
2016-08-04T07:27:33.794Z,13608
2016-08-04T07:28:33.858Z,13576
2016-08-04T07:29:33.798Z,14308
2016-08-04T07:30:33.805Z,17152
2016-08-04T07:31:33.800Z,18336
2016-08-04T07:32:33.819Z,21024
2016-08-04T07:33:33.814Z,20640
2016-08-04T07:34:33.823Z,24608
2016-08-04T07:35:33.807Z,16672
2016-08-04T07:36:34.095Z,17024
2016-08-04T07:37:33.803Z,15288
2016-08-04T07:38:33.844Z,24832
2016-08-04T07:39:33.811Z,21312
2016-08-04T07:40:33.884Z,16960
2016-08-04T07:41:33.805Z,19456
2016-08-04T07:42:33.897Z,30272
2016-08-04T07:43:33.841Z,29632
2016-08-04T07:44:33.847Z,36448
2016-08-04T07:45:33.818Z,32320
2016-08-04T07:46:33.849Z,25056
2016-08-04T07:47:33.863Z,15472
2016-08-04T07:48:33.829Z,13308
2016-08-04T07:49:33.855Z,12152
2016-08-04T07:50:33.840Z,11724
2016-08-04T07:51:33.881Z,11580
2016-08-04T07:52:33.845Z,10996
2016-08-04T07:53:33.903Z,10276
2016-08-04T07:54:33.868Z,10312
2016-08-04T07:55:33.879Z,9564
2016-08-04T07:56:33.849Z,9132
2016-08-04T07:57:33.867Z,9044
2016-08-04T07:58:34.805Z,9192
2016-08-04T07:59:33.883Z,9340
2016-08-04T08:00:34.881Z,9468
2016-08-04T08:01:33.872Z,9468
2016-08-04T08:02:33.892Z,9532
2016-08-04T08:03:33.890Z,9760
2016-08-04T08:04:33.891Z,10032
2016-08-04T08:05:33.950Z,9936
2016-08-04T08:06:33.936Z,9580
2016-08-04T08:07:33.922Z,9664
2016-08-04T08:08:33.917Z,9500
2016-08-04T08:09:34.779Z,9412
2016-08-04T08:10:33.924Z,9656
2016-08-04T08:11:33.962Z,9880
2016-08-04T08:12:33.917Z,10244
2016-08-04T08:13:33.963Z,10424
2016-08-04T08:14:33.960Z,10220
2016-08-04T08:15:33.962Z,9848
2016-08-04T08:16:34.831Z,9664
2016-08-04T08:17:33.950Z,9676
2016-08-04T08:18:33.961Z,9456
2016-08-04T08:19:33.962Z,9348
2016-08-04T08:20:33.970Z,9620
2016-08-04T08:21:34.067Z,9544
2016-08-04T08:22:33.962Z,9748
2016-08-04T08:23:33.982Z,9856
2016-08-04T08:24:33.973Z,9944
2016-08-04T08:25:34.001Z,10228
2016-08-04T08:26:34.053Z,10908
2016-08-04T08:27:34.003Z,11560
2016-08-04T08:28:34.076Z,12068
2016-08-04T08:29:34.017Z,12808
2016-08-04T08:30:34.002Z,13460
2016-08-04T08:31:34.023Z,13876
2016-08-04T08:32:34.046Z,14464
2016-08-04T08:33:34.019Z,14812
2016-08-04T08:34:34.025Z,14784
2016-08-04T08:35:34.034Z,14824
2016-08-04T08:36:34.129Z,15180
2016-08-04T08:37:34.845Z,15412
2016-08-04T08:38:34.038Z,15708
2016-08-04T08:39:34.044Z,15976
2016-08-04T08:40:34.095Z,15648
2016-08-04T08:41:34.075Z,15432
2016-08-04T08:42:34.112Z,15196
2016-08-04T08:43:34.071Z,14988
2016-08-04T08:44:34.075Z,15228
2016-08-04T08:45:34.080Z,15076
2016-08-04T08:46:34.083Z,14440
2016-08-04T08:47:34.090Z,14208
2016-08-04T08:48:34.087Z,13732
2016-08-04T08:49:34.180Z,13320
2016-08-04T08:50:34.100Z,12592
2016-08-04T08:52:34.099Z,12664
2016-08-04T08:53:34.126Z,13036
2016-08-04T08:54:34.426Z,13408
2016-08-04T08:55:34.123Z,13948
2016-08-04T08:56:34.128Z,14288
2016-08-04T08:57:34.139Z,14360
2016-08-04T08:58:34.131Z,14192
2016-08-04T08:59:34.154Z,13860
2016-08-04T09:00:34.145Z,13148
2016-08-04T09:01:34.136Z,12828
2016-08-04T09:02:34.158Z,12480
2016-08-04T09:03:34.151Z,12376
2016-08-04T09:04:34.144Z,12516
2016-08-04T09:05:34.159Z,12904
2016-08-04T09:07:34.173Z,14068
2016-08-04T09:08:34.152Z,14824
2016-08-04T09:09:34.164Z,15156
2016-08-04T09:10:34.232Z,15536
2016-08-04T09:11:34.185Z,15556
2016-08-04T09:12:34.191Z,15404
2016-08-04T09:13:34.195Z,15488
2016-08-04T09:14:34.209Z,15248
2016-08-04T09:15:34.382Z,15124
2016-08-04T09:16:34.219Z,14948
2016-08-04T09:17:34.211Z,14932
2016-08-04T09:18:34.219Z,14800
2016-08-04T09:19:34.220Z,14980
2016-08-04T09:20:34.235Z,14636
2016-08-04T09:21:34.226Z,14712
2016-08-04T09:22:34.247Z,14716
2016-08-04T09:23:34.239Z,14968
2016-08-04T09:24:34.241Z,15428
2016-08-04T09:25:34.229Z,15868
2016-08-04T09:26:34.223Z,16192
2016-08-04T09:27:34.248Z,16136
2016-08-04T09:28:34.248Z,16608
2016-08-04T09:29:34.246Z,16864
2016-08-04T09:30:34.953Z,16036
2016-08-04T09:31:34.363Z,15688
2016-08-04T09:32:34.242Z,15736
2016-08-04T09:33:34.364Z,15644
2016-08-04T09:34:34.367Z,15100
2016-08-04T09:35:34.386Z,14508
2016-08-04T09:36:34.696Z,14540
2016-08-04T09:37:34.537Z,14436
2016-08-04T09:38:34.400Z,13404
2016-08-04T09:39:34.532Z,12884
2016-08-04T09:40:34.387Z,12508
2016-08-04T09:41:34.394Z,12076
2016-08-04T09:42:34.423Z,12176
2016-08-04T09:43:34.541Z,11956
2016-08-04T09:44:34.382Z,11552
2016-08-04T09:45:35.041Z,12528
2016-08-04T09:46:34.385Z,12832
2016-08-04T09:47:34.536Z,12912
2016-08-04T09:48:34.552Z,12988
2016-08-04T09:49:34.562Z,13148
2016-08-04T09:50:34.410Z,13640
2016-08-04T09:51:35.038Z,14192
2016-08-04T09:52:34.413Z,14376
2016-08-04T09:53:34.530Z,14552
2016-08-04T09:54:34.419Z,14560
2016-08-04T09:55:34.422Z,14292
2016-08-04T09:56:34.423Z,14036
2016-08-04T09:57:34.421Z,13768
2016-08-04T09:58:34.426Z,13692
2016-08-04T09:59:34.526Z,13776
2016-08-04T10:00:34.534Z,14072
2016-08-04T10:01:34.651Z,14604
2016-08-04T10:02:34.547Z,15160
2016-08-04T10:03:34.560Z,14900
2016-08-04T10:04:34.561Z,14564
2016-08-04T10:05:34.576Z,14768
2016-08-04T10:06:34.575Z,14688
2016-08-04T10:07:34.584Z,14504
2016-08-04T10:08:34.591Z,14220
2016-08-04T10:09:34.598Z,14152
2016-08-04T10:10:34.614Z,14108
2016-08-04T10:11:34.617Z,13976
2016-08-04T10:12:34.518Z,13624
2016-08-04T10:13:34.528Z,13980
2016-08-04T10:14:35.141Z,14296
2016-08-04T10:15:34.545Z,13912
2016-08-04T10:16:34.561Z,13324
2016-08-04T10:17:34.551Z,13540
2016-08-04T10:18:34.564Z,14020
2016-08-04T10:19:34.570Z,14616
2016-08-04T10:20:34.583Z,14508
2016-08-04T10:21:34.591Z,14732
2016-08-04T10:22:34.590Z,15056
2016-08-04T10:23:34.595Z,14924
2016-08-04T10:24:34.647Z,14588
2016-08-04T10:25:34.660Z,14764
2016-08-04T10:26:34.653Z,14708
2016-08-04T10:27:34.658Z,14436
2016-08-04T10:28:34.682Z,13692
2016-08-04T10:29:34.679Z,13036
2016-08-04T10:30:35.197Z,12520
2016-08-04T10:31:34.699Z,12340
2016-08-04T10:32:34.694Z,12096
2016-08-04T10:33:34.563Z,11724
2016-08-04T10:34:34.713Z,11336
2016-08-04T10:35:34.727Z,11440
2016-08-04T10:36:34.596Z,11580
2016-08-04T10:37:34.644Z,11460
2016-08-04T10:38:34.649Z,12808
2016-08-04T10:39:34.653Z,12984
2016-08-04T10:40:34.670Z,13432
2016-08-04T10:41:34.729Z,14760
2016-08-04T10:42:35.300Z,14628
2016-08-04T10:43:34.689Z,14544
2016-08-04T10:44:34.693Z,16512
2016-08-04T10:45:34.700Z,15392
2016-08-04T10:46:34.724Z,15028
2016-08-04T10:47:35.270Z,14808
2016-08-04T10:48:34.713Z,13056
2016-08-04T10:49:34.622Z,12072
2016-08-04T10:50:34.635Z,11764
2016-08-04T10:51:34.648Z,11364
2016-08-04T10:52:34.701Z,10292
2016-08-04T10:53:34.647Z,9604
2016-08-04T10:54:35.245Z,9424
2016-08-04T10:55:34.663Z,9388
2016-08-04T10:56:34.675Z,9452
2016-08-04T10:57:34.669Z,9416
2016-08-04T10:58:34.685Z,9344
2016-08-04T10:59:34.833Z,9488
2016-08-04T11:00:34.707Z,9652
2016-08-04T11:01:34.671Z,9976
2016-08-04T11:02:34.683Z,10224
2016-08-04T11:03:34.677Z,10664
2016-08-04T11:04:34.686Z,11048
2016-08-04T11:05:34.708Z,11444
2016-08-04T11:06:34.707Z,11920
2016-08-04T11:07:34.712Z,12248
2016-08-04T11:08:34.724Z,12824
2016-08-04T11:09:34.743Z,12884
2016-08-04T11:10:34.741Z,13200
2016-08-04T11:11:34.749Z,13056
2016-08-04T11:12:34.756Z,13088
2016-08-04T11:13:34.751Z,13184
2016-08-04T11:14:34.664Z,13424
2016-08-04T11:15:34.672Z,13628
2016-08-04T11:16:34.683Z,13960
2016-08-04T11:17:34.682Z,13912
2016-08-04T11:18:34.687Z,13744
2016-08-04T11:19:34.722Z,13496
2016-08-04T11:20:34.707Z,13664
2016-08-04T11:21:34.722Z,14080
2016-08-04T11:22:34.727Z,13968
2016-08-04T11:23:34.723Z,14144
2016-08-04T11:24:34.752Z,14264
2016-08-04T11:25:34.754Z,14212
2016-08-04T11:26:34.706Z,14336
2016-08-04T11:27:34.718Z,14572
2016-08-04T11:28:34.714Z,15036
2016-08-04T11:29:34.721Z,15460
2016-08-04T11:30:34.718Z,15924
2016-08-04T11:31:34.723Z,16168
2016-08-04T11:32:34.743Z,16288
2016-08-04T11:33:34.739Z,16076
2016-08-04T11:34:34.740Z,15628
2016-08-04T11:35:34.753Z,15496
2016-08-04T11:36:34.761Z,15752
2016-08-04T11:37:34.801Z,16012
2016-08-04T11:38:34.756Z,16216
2016-08-04T11:39:34.776Z,16960
2016-08-04T11:40:34.765Z,17344
2016-08-04T11:41:34.779Z,17728
2016-08-04T11:42:34.785Z,17664
2016-08-04T11:43:34.781Z,17632
2016-08-04T11:44:35.044Z,17312
2016-08-04T11:45:34.800Z,16608
2016-08-04T11:46:34.798Z,15776
2016-08-04T11:47:34.806Z,15196
2016-08-04T11:48:34.800Z,14544
2016-08-04T11:49:34.810Z,14144
2016-08-04T11:50:34.816Z,13960
2016-08-04T11:51:34.822Z,14292
2016-08-04T11:52:34.845Z,13920
2016-08-04T11:53:34.871Z,13368
2016-08-04T11:54:34.855Z,12632
2016-08-04T11:55:34.892Z,12368
2016-08-04T11:56:34.830Z,12468
2016-08-04T11:57:34.843Z,12512
2016-08-04T11:58:34.851Z,12800
2016-08-04T11:59:34.927Z,13828
2016-08-04T12:00:34.855Z,14472
2016-08-04T12:01:34.859Z,15000
2016-08-04T12:02:34.859Z,15280
2016-08-04T12:03:34.860Z,14892
2016-08-04T12:04:34.886Z,14364
2016-08-04T12:05:34.894Z,14388
2016-08-04T12:06:34.872Z,14748
2016-08-04T12:07:34.943Z,14148
2016-08-04T12:08:34.887Z,13756
2016-08-04T12:09:34.886Z,15100
2016-08-04T12:10:34.896Z,15784
2016-08-04T12:11:34.927Z,15252
2016-08-04T12:12:34.915Z,15504
2016-08-04T12:13:34.914Z,15832
2016-08-04T12:14:34.923Z,15704
2016-08-04T12:15:34.938Z,15892
2016-08-04T12:16:34.906Z,15980
2016-08-04T12:17:35.663Z,15936
2016-08-04T12:18:34.931Z,15816
2016-08-04T12:19:34.932Z,14968
2016-08-04T12:20:35.023Z,14616
2016-08-04T12:21:35.190Z,14508
2016-08-04T12:22:35.020Z,14672
2016-08-04T12:23:34.954Z,15632
2016-08-04T12:24:34.964Z,17152
2016-08-04T12:25:34.975Z,17952
2016-08-04T12:26:34.968Z,18112
2016-08-04T12:27:35.701Z,18176
2016-08-04T12:28:34.967Z,17792
2016-08-04T12:29:34.995Z,16992
2016-08-04T12:30:34.985Z,16012
2016-08-04T12:31:35.002Z,15360
2016-08-04T12:32:34.991Z,14876
2016-08-04T12:33:35.016Z,14552
2016-08-04T12:34:34.997Z,14184
2016-08-04T12:35:35.713Z,14260
2016-08-04T12:36:35.013Z,14024
2016-08-04T12:37:35.045Z,14024
2016-08-04T12:38:35.068Z,14120
2016-08-04T12:39:35.051Z,14656
2016-08-04T12:40:35.018Z,15344
2016-08-04T12:41:35.101Z,15700
2016-08-04T12:42:35.083Z,15456
2016-08-04T12:43:35.036Z,15288
2016-08-04T12:44:35.116Z,15072
2016-08-04T12:45:35.047Z,15164
2016-08-04T12:46:35.049Z,15520
2016-08-04T12:47:35.059Z,15796
2016-08-04T12:48:35.053Z,15884
2016-08-04T12:49:35.068Z,15504
2016-08-04T12:50:35.778Z,15456
2016-08-04T12:51:35.074Z,15120
2016-08-04T12:53:35.079Z,14808
2016-08-04T12:54:35.089Z,14664
2016-08-04T12:55:35.105Z,14408
2016-08-04T12:56:35.091Z,14448
2016-08-04T12:57:35.102Z,14624
2016-08-04T12:58:35.103Z,15052
2016-08-04T12:59:35.123Z,15796
2016-08-04T13:00:35.117Z,16332
2016-08-04T13:01:35.134Z,16768
2016-08-04T13:02:35.171Z,17184
2016-08-04T13:03:35.129Z,17088
2016-08-04T13:04:35.143Z,16992
2016-08-04T13:05:35.161Z,16272
2016-08-04T13:06:35.143Z,15972
2016-08-04T13:08:35.164Z,15740
2016-08-04T13:09:35.160Z,15820
2016-08-04T13:10:35.159Z,17024
2016-08-04T13:11:35.169Z,17472
2016-08-04T13:12:35.175Z,17344
2016-08-04T13:13:35.184Z,17088
2016-08-04T13:14:35.188Z,16608
2016-08-04T13:15:35.193Z,15864
2016-08-04T13:16:35.206Z,16056
2016-08-04T13:17:35.196Z,15736
2016-08-04T13:18:35.214Z,15508
2016-08-04T13:19:35.210Z,15964
2016-08-04T13:20:35.203Z,15872
2016-08-04T13:21:35.222Z,15600
2016-08-04T13:22:35.215Z,15260
2016-08-04T13:23:35.215Z,15460
2016-08-04T13:24:35.249Z,15576
2016-08-04T13:25:35.259Z,15296
2016-08-04T13:26:35.238Z,14228
2016-08-04T13:27:35.262Z,13204
2016-08-04T13:28:35.266Z,12472
2016-08-04T13:29:35.268Z,11848
2016-08-04T13:30:35.264Z,11024
2016-08-04T13:31:35.260Z,10300
2016-08-04T13:32:35.280Z,10024
2016-08-04T13:33:36.028Z,10292
2016-08-04T13:34:35.286Z,10632
2016-08-04T13:35:35.286Z,11120
2016-08-04T13:36:35.296Z,11448
2016-08-04T13:37:35.299Z,11408
2016-08-04T13:39:35.307Z,11152
2016-08-04T13:40:35.318Z,12148